Terminal Aerodrome Forecast
Issued by NWS

Current Version | Previous Version | Text Only | Print | Product List | Glossary On
Versions: 1 2 3 4 5 6 7 8 9 10 11 12 13 14
778
FTUS44 KCRP 201725
TAFALI
TAF
KALI 201725Z 2018/2118 07009KT P6SM BKN050
     FM202200 13006KT P6SM BKN040
     FM210400 18004KT P6SM BKN025
     FM211000 24003KT 3SM BR SCT018
     FM211400 22006KT P6SM SCT025 SCT150=

USA.gov is the U.S. government's official web portal to all federal, state and local government web resources and services.